Pagrindinis puslapis
METAR-TAF:

METAR-TAF

Oro uostai :

Rerusas, Norvegija

platuma: 62-35N, ilguma: 011-21E, Aukštis: 626 m

Dabartinis oras

Ataskaita buvo paskelbta 21 minutes, ne 18:50 UTC
Vėjas 8 kt iš Vakarų/Pietvakarių
Temperatūra 0°C
Drėgmė 86%
Slėgis 981 hPa
Matomumas 10 km arba daugiau
nėra debesų žemiau 1500 m ir nėra kamuolinių lietaus debesų

METAR: ENRO 051850Z 24008KT CAVOK M00/M02 Q0981

Laikas: 20:11 (19:11 UTC)

Prognozė

Ataskaita buvo paskelbta 8 valandos ir 11 minutes, ne 11:00 UTC
Prognozė galioja nuo 05 metu 12 UTC su 05 metu 20 UTC
Vėjas 12 kt iš Pietų
Matomumas 10 km arba daugiau
Mažai debesys ne aukštis 2000 ft
Išsisklaidę debesys ne aukštis 4000 ft
Laikinai
nuo 05 metu 12 UTC su 05 metu 16 UTC
Vėjas 15 kt iš Pietvakarių su gūsio iki 25 kt
Matomumas: 3000 m
Su prošvaistėmis ne aukštis 1400 ft
sniegas
Tapsmas
nuo 05 metu 14 UTC su 05 metu 16 UTC
Vėjas 8 kt iš Vakarų/Pietvakarių

TAF: ENRO 051100Z 0512/0520 19012KT 9999 FEW020 SCT040 TEMPO 0512/0516 22015G25KT 3000 -SHSN BKN014 BECMG 0514/0516 25008KT

Orai ataskaitas ir orų prognozės (METAR, TAF).

turimą stotys yra geltonos ir raudonos taškus žemėlapyje.

Perkelti pele per norėdami pamatyti stoties vardą.

Tada spustelėkite, norėdami matyti oro stebėjimo ir prognozės.

Norėdami pakeisti žemėlapį: spustelėkite ant žalios mygtukų su juodo kryžiaus žemyn,; žalią mygtuką su brūkšneliu, jei norite nutolinti; arba žalių rodyklių gretimoms žemėlapius.


METAR-TAF: